createdAt,value
2022-08-21T00:00:30.169Z,54.90
2022-08-21T00:03:04.296Z,55.42
2022-08-21T00:05:37.356Z,50.40
2022-08-21T00:08:05.666Z,63.20
2022-08-21T00:10:33.694Z,55.00
2022-08-21T00:13:05.135Z,67.22
2022-08-21T00:15:34.814Z,58.83
2022-08-21T00:18:03.561Z,66.20
2022-08-21T00:20:31.495Z,55.20
2022-08-21T00:22:59.172Z,60.78
2022-08-21T00:25:27.846Z,57.80
2022-08-21T00:27:57.023Z,55.10
2022-08-21T00:30:27.336Z,60.05
2022-08-21T00:32:57.626Z,63.55
2022-08-21T00:35:30.876Z,63.85
2022-08-21T00:37:59.505Z,57.78
2022-08-21T00:40:34.747Z,66.43
2022-08-21T00:43:06.717Z,63.80
2022-08-21T00:45:35.003Z,68.45
2022-08-21T00:48:03.087Z,51.90
2022-08-21T00:50:33.905Z,53.20
2022-08-21T00:53:04.062Z,43.60
2022-08-21T00:55:32.669Z,44.75
2022-08-21T00:58:02.801Z,50.95
2022-08-21T01:00:34.354Z,41.75
2022-08-21T01:03:07.418Z,43.70
2022-08-21T01:05:37.626Z,47.20
2022-08-21T01:08:07.303Z,50.53
2022-08-21T01:10:36.256Z,43.80
2022-08-21T01:13:08.917Z,47.67
2022-08-21T01:15:39.896Z,55.58
2022-08-21T01:18:10.406Z,59.65
2022-08-21T01:20:39.999Z,66.45
2022-08-21T01:23:08.489Z,80.22
2022-08-21T01:25:36.666Z,150.95
2022-08-21T01:28:12.556Z,101.78
2022-08-21T01:30:41.615Z,105.10
2022-08-21T01:33:09.206Z,120.30
2022-08-21T01:35:37.136Z,129.32
2022-08-21T01:38:04.836Z,134.43
2022-08-21T01:40:32.506Z,159.38
2022-08-21T01:43:00.105Z,150.60
2022-08-21T01:45:27.885Z,211.63
2022-08-21T01:47:55.976Z,155.13
2022-08-21T01:50:24.024Z,166.00
2022-08-21T01:52:53.085Z,183.73
2022-08-21T01:55:21.031Z,193.38
2022-08-21T01:57:49.877Z,130.32
2022-08-21T02:00:20.666Z,116.15
2022-08-21T02:02:48.195Z,91.38
2022-08-21T02:05:15.951Z,87.97
2022-08-21T02:07:47.465Z,78.20
2022-08-21T02:10:18.303Z,65.25
2022-08-21T02:12:46.255Z,56.45
2022-08-21T02:15:14.786Z,56.53
2022-08-21T02:18:08.786Z,51.58
2022-08-21T02:20:45.545Z,46.55
2022-08-21T02:23:13.996Z,44.80
2022-08-21T02:25:42.613Z,39.05
2022-08-21T02:28:14.526Z,39.35
2022-08-21T02:30:45.576Z,37.65
2022-08-21T02:33:14.456Z,34.35
2022-08-21T02:35:43.814Z,40.58
2022-08-21T02:38:24.284Z,36.65
2022-08-21T02:40:52.468Z,35.22
2022-08-21T02:43:22.471Z,30.60
2022-08-21T02:45:52.005Z,31.88
2022-08-21T02:48:25.575Z,22.27
2022-08-21T02:50:57.331Z,16.27
2022-08-21T02:53:25.655Z,18.90
2022-08-21T02:55:54.795Z,16.75
2022-08-21T02:58:26.612Z,14.90
2022-08-21T03:00:55.193Z,18.95
2022-08-21T03:03:23.283Z,14.40
2022-08-21T03:05:51.034Z,16.90
2022-08-21T03:08:19.521Z,16.10
2022-08-21T03:10:50.654Z,17.92
2022-08-21T03:13:21.590Z,16.27
2022-08-21T03:15:50.605Z,18.42
2022-08-21T03:18:18.410Z,15.15
2022-08-21T03:20:46.575Z,16.27
2022-08-21T03:23:16.782Z,16.33
2022-08-21T03:25:47.851Z,17.20
2022-08-21T03:28:23.084Z,14.93
2022-08-21T03:30:52.372Z,14.63
2022-08-21T03:33:23.311Z,12.32
2022-08-21T03:36:09.704Z,14.55
2022-08-21T03:38:38.411Z,11.27
2022-08-21T03:41:06.903Z,12.18
2022-08-21T03:43:37.383Z,11.55
2022-08-21T03:46:06.737Z,11.93
2022-08-21T03:48:36.685Z,15.65
2022-08-21T03:51:05.434Z,11.93
2022-08-21T03:53:33.533Z,14.63
2022-08-21T03:56:01.273Z,12.65
2022-08-21T03:58:30.067Z,14.57
2022-08-21T04:01:00.163Z,12.95
2022-08-21T04:03:29.022Z,12.95
2022-08-21T04:05:56.700Z,13.80
2022-08-21T04:08:24.554Z,14.05
2022-08-21T04:10:54.946Z,13.63
2022-08-21T04:13:22.938Z,16.58
2022-08-21T04:15:51.072Z,14.82
2022-08-21T04:18:19.458Z,16.15
2022-08-21T04:20:50.911Z,13.30
2022-08-21T04:23:23.572Z,15.50
2022-08-21T04:25:53.967Z,14.43
2022-08-21T04:28:23.649Z,10.48
2022-08-21T04:30:57.162Z,15.00
2022-08-21T04:33:25.567Z,8.80
2022-08-21T04:35:53.314Z,9.77
2022-08-21T04:38:21.394Z,9.07
2022-08-21T04:40:50.674Z,9.32
2022-08-21T04:43:19.385Z,9.95
2022-08-21T04:45:48.873Z,9.85
2022-08-21T04:48:18.974Z,10.57
2022-08-21T04:50:58.502Z,9.85
2022-08-21T04:53:34.949Z,12.02
2022-08-21T04:56:09.623Z,11.18
2022-08-21T04:58:39.529Z,11.52
2022-08-21T05:01:14.550Z,9.52
2022-08-21T05:03:42.390Z,8.85
2022-08-21T05:06:12.889Z,8.32
2022-08-21T05:08:42.383Z,8.82
2022-08-21T05:11:10.629Z,11.00
2022-08-21T05:13:38.516Z,10.98
2022-08-21T05:16:06.342Z,10.77
2022-08-21T05:18:34.059Z,10.50
2022-08-21T05:21:01.692Z,9.52
2022-08-21T05:23:29.282Z,8.93
2022-08-21T05:25:58.481Z,8.85
2022-08-21T05:28:27.269Z,11.18
2022-08-21T05:30:55.233Z,9.07
2022-08-21T05:33:22.813Z,8.77
2022-08-21T05:35:56.918Z,10.77
2022-08-21T05:38:28.263Z,10.98
2022-08-21T05:40:56.433Z,8.93
2022-08-21T05:43:24.068Z,10.02
2022-08-21T05:45:51.673Z,10.60
2022-08-21T05:48:23.601Z,12.30
2022-08-21T05:50:53.133Z,12.60
2022-08-21T05:53:23.699Z,14.18
2022-08-21T05:55:52.852Z,14.70
2022-08-21T05:58:22.592Z,13.00
2022-08-21T06:00:51.702Z,13.38
2022-08-21T06:03:24.050Z,17.80
2022-08-21T06:05:51.881Z,20.90
2022-08-21T06:08:20.483Z,19.38
2022-08-21T06:10:49.763Z,28.48
2022-08-21T06:13:19.232Z,23.00
2022-08-21T06:15:47.070Z,22.27
2022-08-21T06:18:15.232Z,24.60
2022-08-21T06:20:43.422Z,25.63
2022-08-21T06:23:10.953Z,27.20
2022-08-21T06:25:38.561Z,26.20
2022-08-21T06:28:09.679Z,25.17
2022-08-21T06:30:38.792Z,24.77
2022-08-21T06:33:08.104Z,25.40
2022-08-21T06:35:36.724Z,29.00
2022-08-21T06:38:05.222Z,31.70
2022-08-21T06:40:34.807Z,31.67
2022-08-21T06:43:12.357Z,33.92
2022-08-21T06:45:43.429Z,35.33
2022-08-21T06:48:12.739Z,33.90
2022-08-21T06:50:43.463Z,34.47
2022-08-21T06:53:13.741Z,40.40
2022-08-21T06:55:41.699Z,41.35
2022-08-21T06:58:10.131Z,44.28
2022-08-21T07:00:41.528Z,42.42
2022-08-21T07:03:17.022Z,43.17
2022-08-21T07:05:44.648Z,49.70
2022-08-21T07:08:12.110Z,47.55
2022-08-21T07:10:39.687Z,46.83
2022-08-21T07:13:07.443Z,43.25
2022-08-21T07:15:35.487Z,40.97
2022-08-21T07:18:03.953Z,40.55
2022-08-21T07:20:32.237Z,38.28
2022-08-21T07:23:03.931Z,41.45
2022-08-21T07:25:32.411Z,38.40
2022-08-21T07:27:59.901Z,37.95
2022-08-21T07:30:28.404Z,42.00
2022-08-21T07:32:56.749Z,41.30
2022-08-21T07:35:24.729Z,34.70
2022-08-21T07:37:52.499Z,37.22
2022-08-21T07:40:20.510Z,38.20
2022-08-21T07:42:51.158Z,33.15
2022-08-21T07:45:22.252Z,33.33
2022-08-21T07:47:53.127Z,36.03
2022-08-21T07:50:25.341Z,33.15
2022-08-21T07:52:54.461Z,35.38
2022-08-21T07:55:22.800Z,37.28
2022-08-21T07:57:50.456Z,32.42
2022-08-21T08:00:25.474Z,38.70
2022-08-21T08:02:55.262Z,31.13
2022-08-21T08:05:27.249Z,37.95
2022-08-21T08:07:55.573Z,34.60
2022-08-21T08:10:24.180Z,32.95
2022-08-21T08:12:53.030Z,30.77
2022-08-21T08:15:24.540Z,27.33
2022-08-21T08:17:52.131Z,26.05
2022-08-21T08:20:21.122Z,27.85
2022-08-21T08:22:50.237Z,29.88
2022-08-21T08:25:20.059Z,31.73
2022-08-21T08:27:47.718Z,26.73
2022-08-21T08:30:17.834Z,26.15
2022-08-21T08:32:46.226Z,27.40
2022-08-21T08:35:14.526Z,24.95
2022-08-21T08:37:43.879Z,23.65
2022-08-21T08:40:24.448Z,22.58
2022-08-21T08:42:52.490Z,22.33
2022-08-21T08:45:25.008Z,23.35
2022-08-21T08:47:59.125Z,24.73
2022-08-21T08:50:51.808Z,26.83
2022-08-21T08:53:29.771Z,25.10
2022-08-21T08:55:58.719Z,22.02
2022-08-21T08:58:32.230Z,21.27
2022-08-21T09:01:01.208Z,23.05
2022-08-21T09:03:29.731Z,24.75
2022-08-21T09:06:12.460Z,25.67
2022-08-21T09:08:50.033Z,21.55
2022-08-21T09:11:35.899Z,24.33
2022-08-21T09:14:49.019Z,27.08
2022-08-21T09:18:02.186Z,19.30
2022-08-21T09:20:53.929Z,20.92
2022-08-21T09:23:52.335Z,20.58
2022-08-21T09:26:23.980Z,21.73
2022-08-21T09:28:59.388Z,23.40
2022-08-21T09:31:33.741Z,17.02
2022-08-21T09:34:09.267Z,16.38
2022-08-21T09:36:46.499Z,20.63
2022-08-21T09:39:24.259Z,15.27
2022-08-21T09:42:34.980Z,14.85
2022-08-21T09:45:19.468Z,14.85
2022-08-21T09:47:47.036Z,14.57
2022-08-21T09:50:19.033Z,14.43
2022-08-21T09:52:59.979Z,11.55
2022-08-21T09:55:57.836Z,11.10
2022-08-21T09:58:34.875Z,9.38
2022-08-21T10:01:05.923Z,12.13
2022-08-21T10:03:33.778Z,11.27
2022-08-21T10:06:09.821Z,11.00
2022-08-21T10:08:43.829Z,9.85
2022-08-21T10:11:15.578Z,8.77
2022-08-21T10:14:14.117Z,10.20
2022-08-21T10:16:53.668Z,12.27
2022-08-21T10:19:31.865Z,9.48
2022-08-21T10:22:17.860Z,14.85
2022-08-21T10:24:57.559Z,8.90
2022-08-21T10:27:43.819Z,11.95
2022-08-21T10:30:15.330Z,9.93
2022-08-21T10:32:52.317Z,9.93
2022-08-21T10:35:33.228Z,7.68
2022-08-21T10:39:12.048Z,9.65
2022-08-21T10:42:02.474Z,7.95
2022-08-21T10:44:58.667Z,9.88
2022-08-21T10:47:58.213Z,8.55
2022-08-21T10:50:51.948Z,7.38
2022-08-21T10:53:42.698Z,6.75
2022-08-21T10:56:20.532Z,7.70
2022-08-21T10:59:11.067Z,8.63
2022-08-21T11:01:44.584Z,10.27
2022-08-21T11:04:21.304Z,10.10
2022-08-21T11:06:59.897Z,8.18
2022-08-21T11:09:32.238Z,7.05
2022-08-21T11:12:10.940Z,6.50
2022-08-21T11:15:29.498Z,8.45
2022-08-21T11:18:15.158Z,7.32
2022-08-21T11:21:03.705Z,7.00
2022-08-21T11:23:48.593Z,6.55
2022-08-21T11:26:31.477Z,6.00
2022-08-21T11:29:11.237Z,5.95
2022-08-21T11:31:49.378Z,6.07
2022-08-21T11:34:16.987Z,9.80
2022-08-21T11:36:47.569Z,11.18
2022-08-21T11:39:23.064Z,9.02
2022-08-21T11:42:09.026Z,8.07
2022-08-21T11:44:51.422Z,5.82
2022-08-21T11:47:50.892Z,7.95
2022-08-21T11:50:35.618Z,7.43
2022-08-21T11:53:18.391Z,7.05
2022-08-21T11:55:58.336Z,10.45
2022-08-21T11:58:57.890Z,9.90
2022-08-21T12:01:33.628Z,9.27
2022-08-21T12:04:19.923Z,8.88
2022-08-21T12:06:48.446Z,6.18
2022-08-21T12:09:25.235Z,6.43
2022-08-21T12:12:06.253Z,6.97
2022-08-21T12:14:41.803Z,8.32
2022-08-21T12:17:20.746Z,11.45
2022-08-21T12:20:00.236Z,8.40
2022-08-21T12:22:42.061Z,7.88
2022-08-21T12:25:21.015Z,8.13
2022-08-21T12:27:53.507Z,4.90
2022-08-21T12:30:46.274Z,8.27
2022-08-21T12:33:31.427Z,7.57
2022-08-21T12:36:11.217Z,6.32
2022-08-21T12:38:52.642Z,6.72
2022-08-21T12:41:23.917Z,5.30
2022-08-21T12:44:01.686Z,5.78
2022-08-21T12:46:37.822Z,5.90
2022-08-21T12:49:15.185Z,6.45
2022-08-21T12:52:23.266Z,5.80
2022-08-21T12:54:50.998Z,4.68
2022-08-21T12:57:22.936Z,6.20
2022-08-21T13:00:01.366Z,4.88
2022-08-21T13:02:41.226Z,7.03
2022-08-21T13:05:14.115Z,5.35
2022-08-21T13:07:47.542Z,3.90
2022-08-21T13:10:21.706Z,5.95
2022-08-21T13:12:50.126Z,6.10
2022-08-21T13:15:33.017Z,5.35
2022-08-21T13:18:03.563Z,10.13
2022-08-21T13:20:34.404Z,8.70
2022-08-21T13:23:04.865Z,8.80
2022-08-21T13:25:37.356Z,7.47
2022-08-21T13:28:12.762Z,7.25
2022-08-21T13:30:44.625Z,6.05
2022-08-21T13:33:15.942Z,5.85
2022-08-21T13:36:01.935Z,4.55
2022-08-21T13:38:32.903Z,4.63
2022-08-21T13:41:07.326Z,4.70
2022-08-21T13:43:36.846Z,4.97
2022-08-21T13:46:11.312Z,3.75
2022-08-21T13:48:39.571Z,7.22
2022-08-21T13:51:07.587Z,6.20
2022-08-21T13:53:53.451Z,4.65
2022-08-21T13:56:43.314Z,4.90
2022-08-21T13:59:11.025Z,8.70
2022-08-21T14:01:55.749Z,4.15
2022-08-21T14:04:26.240Z,6.05
2022-08-21T14:06:54.239Z,6.18
2022-08-21T14:09:44.058Z,7.05
2022-08-21T14:12:30.561Z,6.28
2022-08-21T14:14:59.598Z,5.43
2022-08-21T14:17:34.024Z,9.20
2022-08-21T14:20:02.786Z,5.40
2022-08-21T14:22:44.682Z,7.95
2022-08-21T14:25:30.321Z,6.90
2022-08-21T14:28:19.453Z,9.73
2022-08-21T14:30:48.322Z,5.13
2022-08-21T14:33:33.583Z,7.35
2022-08-21T14:36:03.073Z,7.70
2022-08-21T14:38:31.060Z,6.50
2022-08-21T14:41:17.112Z,8.85
2022-08-21T14:43:46.610Z,7.25
2022-08-21T14:46:22.482Z,7.35
2022-08-21T14:48:50.212Z,10.35
2022-08-21T14:51:18.153Z,9.55
2022-08-21T14:53:46.413Z,8.63
2022-08-21T14:56:15.273Z,3.45
2022-08-21T14:58:49.753Z,7.13
2022-08-21T15:01:19.957Z,4.30
2022-08-21T15:03:49.600Z,5.15
2022-08-21T15:06:18.788Z,6.78
2022-08-21T15:08:46.321Z,7.68
2022-08-21T15:11:42.185Z,7.65
2022-08-21T15:14:12.071Z,6.50
2022-08-21T15:16:39.762Z,4.53
2022-08-21T15:19:07.221Z,4.70
2022-08-21T15:21:34.699Z,4.70
2022-08-21T15:24:02.345Z,3.40
2022-08-21T15:26:30.024Z,4.82
2022-08-21T15:28:57.572Z,5.95
2022-08-21T15:31:25.358Z,6.65
2022-08-21T15:33:53.623Z,6.78
2022-08-21T15:36:21.226Z,5.10
2022-08-21T15:38:48.763Z,5.47
2022-08-21T15:41:16.534Z,4.75
2022-08-21T15:43:48.863Z,5.57
2022-08-21T15:46:18.371Z,4.20
2022-08-21T15:48:47.284Z,6.53
2022-08-21T15:51:16.893Z,7.53
2022-08-21T15:53:45.592Z,3.30
2022-08-21T15:56:21.012Z,7.90
2022-08-21T15:58:49.101Z,6.00
2022-08-21T16:01:16.951Z,5.15
2022-08-21T16:03:49.842Z,6.05
2022-08-21T16:06:17.468Z,5.93
2022-08-21T16:08:45.072Z,5.88
2022-08-21T16:11:17.094Z,5.18
2022-08-21T16:13:46.669Z,4.85
2022-08-21T16:16:19.252Z,3.20
2022-08-21T16:18:48.383Z,4.93
2022-08-21T16:21:16.901Z,4.85
2022-08-21T16:23:44.882Z,4.30
2022-08-21T16:26:18.583Z,4.30
2022-08-21T16:28:50.953Z,4.68
2022-08-21T16:31:20.316Z,4.38
2022-08-21T16:33:52.310Z,4.20
2022-08-21T16:36:29.030Z,4.80
2022-08-21T16:39:02.245Z,5.07
2022-08-21T16:41:34.601Z,6.43
2022-08-21T16:44:03.971Z,3.60
2022-08-21T16:46:35.041Z,3.22
2022-08-21T16:49:03.419Z,5.85
2022-08-21T16:51:31.792Z,4.03
2022-08-21T16:54:00.177Z,3.85
2022-08-21T16:56:28.181Z,6.50
2022-08-21T16:58:57.530Z,2.83
2022-08-21T17:01:31.875Z,5.85
2022-08-21T17:04:00.014Z,6.10
2022-08-21T17:06:29.275Z,3.38
2022-08-21T17:08:58.128Z,4.25
2022-08-21T17:11:37.741Z,4.18
2022-08-21T17:14:13.720Z,4.97
2022-08-21T17:16:46.560Z,5.65
2022-08-21T17:19:15.081Z,2.72
2022-08-21T17:21:42.923Z,7.18
2022-08-21T17:24:10.642Z,3.17
2022-08-21T17:26:38.181Z,5.70
2022-08-21T17:29:10.088Z,4.00
2022-08-21T17:31:40.261Z,5.30
2022-08-21T17:34:08.731Z,3.45
2022-08-21T17:36:36.257Z,4.18
2022-08-21T17:39:04.490Z,4.32
2022-08-21T17:41:32.152Z,3.95
2022-08-21T17:44:07.258Z,5.38
2022-08-21T17:46:35.068Z,3.95
2022-08-21T17:49:02.663Z,5.75
2022-08-21T17:51:34.208Z,4.07
2022-08-21T17:54:01.838Z,4.90
2022-08-21T17:56:36.397Z,6.18
2022-08-21T17:59:05.686Z,5.57
2022-08-21T18:01:38.147Z,5.47
2022-08-21T18:04:05.820Z,5.18
2022-08-21T18:06:33.338Z,3.65
2022-08-21T18:09:01.290Z,4.47
2022-08-21T18:11:30.927Z,5.28
2022-08-21T18:14:07.190Z,7.68
2022-08-21T18:16:37.753Z,4.75
2022-08-21T18:19:10.023Z,5.25
2022-08-21T18:21:37.819Z,4.05
2022-08-21T18:24:05.429Z,4.72
2022-08-21T18:26:37.156Z,4.07
2022-08-21T18:29:09.129Z,5.18
2022-08-21T18:31:38.627Z,3.63
2022-08-21T18:34:20.285Z,5.00
2022-08-21T18:36:49.068Z,4.70
2022-08-21T18:39:36.071Z,6.28
2022-08-21T18:42:09.516Z,8.52
2022-08-21T18:44:39.229Z,5.57
2022-08-21T18:47:15.978Z,8.88
2022-08-21T18:49:43.574Z,5.15
2022-08-21T18:52:17.729Z,5.78
2022-08-21T18:57:38.050Z,6.10
2022-08-21T19:00:13.786Z,6.22
2022-08-21T19:02:44.161Z,4.55
2022-08-21T19:05:14.638Z,9.93
2022-08-21T19:07:42.658Z,4.80
2022-08-21T19:10:29.279Z,5.40
2022-08-21T19:13:01.489Z,6.53
2022-08-21T19:15:30.003Z,6.30
2022-08-21T19:17:58.783Z,5.68
2022-08-21T19:20:30.730Z,4.43
2022-08-21T19:22:58.550Z,4.22
2022-08-21T19:25:33.966Z,6.05
2022-08-21T19:28:38.557Z,5.93
2022-08-21T19:31:16.414Z,5.25
2022-08-21T19:33:54.148Z,4.32
2022-08-21T19:36:24.805Z,9.50
2022-08-21T19:38:53.784Z,4.60
2022-08-21T19:41:24.259Z,4.82
2022-08-21T19:43:57.160Z,3.85
2022-08-21T19:46:30.614Z,5.13
2022-08-21T19:48:59.838Z,3.63
2022-08-21T19:51:28.378Z,4.93
2022-08-21T19:53:57.456Z,6.10
2022-08-21T19:56:27.954Z,4.72
2022-08-21T19:58:56.527Z,3.70
2022-08-21T20:01:26.038Z,3.95
2022-08-21T20:03:54.796Z,3.25
2022-08-21T20:06:25.178Z,4.72
2022-08-21T20:08:55.253Z,4.97
2022-08-21T20:11:31.440Z,3.95
2022-08-21T20:14:00.631Z,5.97
2022-08-21T20:16:28.946Z,7.15
2022-08-21T20:18:56.945Z,6.85
2022-08-21T20:21:24.620Z,5.43
2022-08-21T20:23:52.217Z,7.13
2022-08-21T20:26:19.958Z,6.13
2022-08-21T20:28:50.560Z,3.33
2022-08-21T20:31:21.743Z,4.25
2022-08-21T20:33:51.259Z,5.38
2022-08-21T20:36:21.504Z,5.63
2022-08-21T20:38:52.075Z,6.32
2022-08-21T20:41:30.443Z,7.55
2022-08-21T20:43:59.880Z,8.88
2022-08-21T20:46:29.959Z,4.32
2022-08-21T20:48:58.175Z,5.07
2022-08-21T20:51:52.850Z,5.25
2022-08-21T20:54:35.236Z,4.47
2022-08-21T20:57:15.395Z,6.13
2022-08-21T20:59:53.036Z,4.20
2022-08-21T21:02:37.899Z,4.50
2022-08-21T21:05:31.908Z,4.03
2022-08-21T21:08:14.365Z,3.45
2022-08-21T21:11:06.941Z,6.22
2022-08-21T21:13:57.016Z,5.25
2022-08-21T21:16:38.409Z,4.07
2022-08-21T21:19:28.215Z,4.47
2022-08-21T21:22:10.559Z,4.95
2022-08-21T21:24:59.236Z,3.33
2022-08-21T21:27:59.388Z,3.00
2022-08-21T21:30:35.593Z,4.38
2022-08-21T21:33:04.693Z,3.20
2022-08-21T21:35:40.119Z,3.47
2022-08-21T21:38:32.892Z,3.88
2022-08-21T21:41:37.298Z,3.28
2022-08-21T21:44:22.288Z,4.13
2022-08-21T21:47:02.488Z,4.32
2022-08-21T21:49:49.569Z,5.25
2022-08-21T21:53:12.570Z,4.00
2022-08-21T21:56:01.724Z,6.20
2022-08-21T21:58:56.988Z,4.35
2022-08-21T22:01:38.148Z,5.10
2022-08-21T22:05:02.288Z,3.40
2022-08-21T22:07:40.689Z,3.83
2022-08-21T22:10:43.164Z,2.85
2022-08-21T22:13:33.505Z,7.30
2022-08-21T22:16:07.838Z,5.47
2022-08-21T22:18:45.297Z,4.45
2022-08-21T22:21:40.427Z,3.78
2022-08-21T22:24:17.001Z,3.60
2022-08-21T22:26:49.825Z,3.90
2022-08-21T22:29:20.374Z,4.15
2022-08-21T22:32:06.951Z,3.83
2022-08-21T22:34:34.864Z,4.05
2022-08-21T22:37:06.448Z,4.68
2022-08-21T22:39:42.253Z,4.95
2022-08-21T22:42:21.199Z,3.40
2022-08-21T22:44:56.574Z,6.57
2022-08-21T22:47:30.656Z,4.30
2022-08-21T22:50:04.334Z,5.53
2022-08-21T22:52:36.368Z,5.95
2022-08-21T22:55:17.249Z,4.78
2022-08-21T22:57:45.851Z,3.97
2022-08-21T23:00:34.558Z,4.38
2022-08-21T23:03:03.633Z,5.97
2022-08-21T23:05:34.495Z,6.07
2022-08-21T23:15:18.015Z,5.22
2022-08-21T23:18:04.746Z,6.25
2022-08-21T23:20:56.111Z,5.78
2022-08-21T23:23:31.275Z,4.18
2022-08-21T23:26:26.720Z,3.88
2022-08-21T23:29:25.049Z,5.25
2022-08-21T23:31:59.407Z,6.55
2022-08-21T23:37:49.723Z,4.20
2022-08-21T23:40:35.160Z,5.07
2022-08-21T23:43:23.020Z,3.10
2022-08-21T23:46:13.586Z,4.43
2022-08-21T23:48:52.310Z,4.35
2022-08-21T23:51:27.700Z,3.72
2022-08-21T23:54:08.636Z,4.05
2022-08-21T23:57:00.979Z,5.22
2022-08-21T23:59:57.597Z,4.97
